sensor_id;sensor_type;location;lat;lon;timestamp;temperature;humidity
431;DHT22;202;48.764;9.172;2023-05-07T01:58:19;16.70;54.50
431;DHT22;202;48.764;9.172;2023-05-07T02:00:46;16.70;54.40
431;DHT22;202;48.764;9.172;2023-05-07T02:03:12;16.70;54.50
431;DHT22;202;48.764;9.172;2023-05-07T02:05:39;16.70;53.90
431;DHT22;202;48.764;9.172;2023-05-07T02:08:06;16.70;54.30
431;DHT22;202;48.764;9.172;2023-05-07T02:57:11;16.40;57.60
431;DHT22;202;48.764;9.172;2023-05-07T02:59:38;16.40;57.90
431;DHT22;202;48.764;9.172;2023-05-07T03:02:06;16.30;57.90
431;DHT22;202;48.764;9.172;2023-05-07T03:04:33;16.40;57.40
431;DHT22;202;48.764;9.172;2023-05-07T03:07:00;16.40;57.10
431;DHT22;202;48.764;9.172;2023-05-07T03:25:01;16.20;57.60
431;DHT22;202;48.764;9.172;2023-05-07T03:27:27;16.20;57.30
431;DHT22;202;48.764;9.172;2023-05-07T03:29:54;16.20;57.00
431;DHT22;202;48.764;9.172;2023-05-07T03:32:21;16.20;56.90
431;DHT22;202;48.764;9.172;2023-05-07T03:34:48;16.10;57.20
431;DHT22;202;48.764;9.172;2023-05-07T06:30:53;18.20;49.10
431;DHT22;202;48.764;9.172;2023-05-07T06:33:21;18.20;49.80
431;DHT22;202;48.764;9.172;2023-05-07T06:35:51;18.10;48.90
431;DHT22;202;48.764;9.172;2023-05-07T06:38:21;18.20;50.40
431;DHT22;202;48.764;9.172;2023-05-07T06:40:54;18.00;49.50
431;DHT22;202;48.764;9.172;2023-05-07T07:24:44;21.40;41.00
431;DHT22;202;48.764;9.172;2023-05-07T07:27:14;22.40;38.40
431;DHT22;202;48.764;9.172;2023-05-07T07:29:46;23.40;35.90
431;DHT22;202;48.764;9.172;2023-05-07T07:32:13;24.10;34.70
431;DHT22;202;48.764;9.172;2023-05-07T07:34:40;24.50;32.70
431;DHT22;202;48.764;9.172;2023-05-07T08:45:44;26.40;28.00
431;DHT22;202;48.764;9.172;2023-05-07T08:48:58;26.00;27.80
431;DHT22;202;48.764;9.172;2023-05-07T08:54:17;26.10;28.00
431;DHT22;202;48.764;9.172;2023-05-07T08:59:50;26.60;28.10
431;DHT22;202;48.764;9.172;2023-05-07T10:03:55;27.30;25.60
431;DHT22;202;48.764;9.172;2023-05-07T10:17:11;25.90;27.70
431;DHT22;202;48.764;9.172;2023-05-07T10:19:54;26.10;27.80
431;DHT22;202;48.764;9.172;2023-05-07T10:22:26;26.30;27.40
431;DHT22;202;48.764;9.172;2023-05-07T10:25:15;26.40;27.30
431;DHT22;202;48.764;9.172;2023-05-07T10:36:15;26.80;25.50
431;DHT22;202;48.764;9.172;2023-05-07T10:39:15;26.80;25.70
431;DHT22;202;48.764;9.172;2023-05-07T10:42:06;26.70;26.40
431;DHT22;202;48.764;9.172;2023-05-07T10:48:23;26.50;25.30
431;DHT22;202;48.764;9.172;2023-05-07T10:58:22;26.10;27.80
431;DHT22;202;48.764;9.172;2023-05-07T11:01:18;26.30;26.70
431;DHT22;202;48.764;9.172;2023-05-07T11:04:36;26.30;27.20
431;DHT22;202;48.764;9.172;2023-05-07T11:07:28;26.10;25.70
431;DHT22;202;48.764;9.172;2023-05-07T11:10:20;25.90;25.90
431;DHT22;202;48.764;9.172;2023-05-07T11:12:56;25.90;25.40
431;DHT22;202;48.764;9.172;2023-05-07T11:15:51;25.70;26.40
431;DHT22;202;48.764;9.172;2023-05-07T11:18:57;25.60;27.00
431;DHT22;202;48.764;9.172;2023-05-07T11:22:01;25.50;27.50
431;DHT22;202;48.764;9.172;2023-05-07T11:27:55;25.20;28.20
431;DHT22;202;48.764;9.172;2023-05-07T11:30:53;25.20;27.30
431;DHT22;202;48.764;9.172;2023-05-07T11:34:14;25.00;27.20
431;DHT22;202;48.764;9.172;2023-05-07T11:37:23;24.90;27.20
431;DHT22;202;48.764;9.172;2023-05-07T11:40:03;24.80;27.10
431;DHT22;202;48.764;9.172;2023-05-07T11:46:19;24.70;27.10
431;DHT22;202;48.764;9.172;2023-05-07T11:49:17;24.70;26.70
431;DHT22;202;48.764;9.172;2023-05-07T11:55:07;24.60;27.60
431;DHT22;202;48.764;9.172;2023-05-07T11:58:07;24.40;30.20
431;DHT22;202;48.764;9.172;2023-05-07T12:01:01;24.40;35.40
431;DHT22;202;48.764;9.172;2023-05-07T12:03:48;24.20;35.00
431;DHT22;202;48.764;9.172;2023-05-07T12:06:46;24.20;36.20
431;DHT22;202;48.764;9.172;2023-05-07T12:09:31;23.80;39.20
431;DHT22;202;48.764;9.172;2023-05-07T12:12:37;23.50;43.00
431;DHT22;202;48.764;9.172;2023-05-07T12:15:22;23.20;47.60
431;DHT22;202;48.764;9.172;2023-05-07T12:17:55;21.90;45.10
431;DHT22;202;48.764;9.172;2023-05-07T12:20:24;21.40;34.20
431;DHT22;202;48.764;9.172;2023-05-07T12:26:17;20.90;43.50
431;DHT22;202;48.764;9.172;2023-05-07T12:29:22;20.70;45.90
431;DHT22;202;48.764;9.172;2023-05-07T12:32:11;20.50;52.00
431;DHT22;202;48.764;9.172;2023-05-07T12:35:13;20.10;55.70
431;DHT22;202;48.764;9.172;2023-05-07T12:37:56;20.00;60.20
431;DHT22;202;48.764;9.172;2023-05-07T12:40:34;19.80;64.50
431;DHT22;202;48.764;9.172;2023-05-07T12:43:08;19.80;65.80
431;DHT22;202;48.764;9.172;2023-05-07T12:45:44;19.80;70.80
431;DHT22;202;48.764;9.172;2023-05-07T12:48:16;19.50;62.50
431;DHT22;202;48.764;9.172;2023-05-07T12:50:45;19.30;61.70
431;DHT22;202;48.764;9.172;2023-05-07T12:53:20;19.20;58.80
431;DHT22;202;48.764;9.172;2023-05-07T12:56:00;18.90;57.00
431;DHT22;202;48.764;9.172;2023-05-07T12:58:30;18.90;60.20
431;DHT22;202;48.764;9.172;2023-05-07T13:01:01;18.70;56.00
431;DHT22;202;48.764;9.172;2023-05-07T13:03:34;18.80;61.80
431;DHT22;202;48.764;9.172;2023-05-07T13:06:24;18.80;66.20
431;DHT22;202;48.764;9.172;2023-05-07T13:08:55;18.70;66.40
431;DHT22;202;48.764;9.172;2023-05-07T13:11:24;18.70;68.40
431;DHT22;202;48.764;9.172;2023-05-07T13:14:10;18.60;64.30
431;DHT22;202;48.764;9.172;2023-05-07T13:16:37;18.30;63.40
431;DHT22;202;48.764;9.172;2023-05-07T13:19:07;18.10;66.10
431;DHT22;202;48.764;9.172;2023-05-07T13:21:37;18.10;62.80
431;DHT22;202;48.764;9.172;2023-05-07T13:24:13;18.00;61.80
431;DHT22;202;48.764;9.172;2023-05-07T13:26:43;17.90;60.40
431;DHT22;202;48.764;9.172;2023-05-07T13:29:12;17.80;61.60
431;DHT22;202;48.764;9.172;2023-05-07T13:31:43;17.90;61.40
431;DHT22;202;48.764;9.172;2023-05-07T13:34:13;17.70;61.80
431;DHT22;202;48.764;9.172;2023-05-07T13:36:49;17.80;60.20
431;DHT22;202;48.764;9.172;2023-05-07T13:39:21;17.90;57.70
431;DHT22;202;48.764;9.172;2023-05-07T13:41:48;17.90;55.40
431;DHT22;202;48.764;9.172;2023-05-07T13:44:18;17.80;58.30
431;DHT22;202;48.764;9.172;2023-05-07T13:46:56;17.80;56.60
431;DHT22;202;48.764;9.172;2023-05-07T13:49:28;17.90;57.50
431;DHT22;202;48.764;9.172;2023-05-07T13:52:03;18.10;60.50
431;DHT22;202;48.764;9.172;2023-05-07T13:54:33;18.30;65.70
431;DHT22;202;48.764;9.172;2023-05-07T13:57:03;18.30;62.60
431;DHT22;202;48.764;9.172;2023-05-07T13:59:43;18.40;65.50
431;DHT22;202;48.764;9.172;2023-05-07T14:02:54;18.50;70.90
431;DHT22;202;48.764;9.172;2023-05-07T14:06:17;18.30;63.80
431;DHT22;202;48.764;9.172;2023-05-07T14:09:12;18.30;62.00
431;DHT22;202;48.764;9.172;2023-05-07T14:15:30;18.30;62.50
431;DHT22;202;48.764;9.172;2023-05-07T21:10:43;17.50;90.80
431;DHT22;202;48.764;9.172;2023-05-07T21:13:10;17.40;91.10
431;DHT22;202;48.764;9.172;2023-05-07T21:15:37;17.30;91.30
431;DHT22;202;48.764;9.172;2023-05-07T21:18:04;17.30;91.50
431;DHT22;202;48.764;9.172;2023-05-07T21:20:31;17.20;91.50
431;DHT22;202;48.764;9.172;2023-05-07T21:22:57;17.20;92.40
431;DHT22;202;48.764;9.172;2023-05-07T21:25:24;17.20;92.40
431;DHT22;202;48.764;9.172;2023-05-07T21:27:53;17.30;92.60
431;DHT22;202;48.764;9.172;2023-05-07T21:30:20;17.30;92.60
431;DHT22;202;48.764;9.172;2023-05-07T21:32:47;17.30;93.40
431;DHT22;202;48.764;9.172;2023-05-07T21:35:14;17.30;92.80
431;DHT22;202;48.764;9.172;2023-05-07T21:37:41;17.40;92.40
431;DHT22;202;48.764;9.172;2023-05-07T21:40:08;17.40;92.70
431;DHT22;202;48.764;9.172;2023-05-07T21:42:35;17.40;92.10
431;DHT22;202;48.764;9.172;2023-05-07T21:45:05;17.40;91.60
431;DHT22;202;48.764;9.172;2023-05-07T21:47:32;17.40;91.60
431;DHT22;202;48.764;9.172;2023-05-07T21:50:00;17.50;91.60
431;DHT22;202;48.764;9.172;2023-05-07T21:52:26;17.40;91.30
431;DHT22;202;48.764;9.172;2023-05-07T21:54:53;17.40;90.80
431;DHT22;202;48.764;9.172;2023-05-07T21:57:20;17.40;91.60
431;DHT22;202;48.764;9.172;2023-05-07T21:59:47;17.40;91.40
431;DHT22;202;48.764;9.172;2023-05-07T22:02:15;17.40;92.00
431;DHT22;202;48.764;9.172;2023-05-07T22:04:42;17.40;91.80
431;DHT22;202;48.764;9.172;2023-05-07T22:07:09;17.40;91.80
431;DHT22;202;48.764;9.172;2023-05-07T22:09:36;17.40;91.60
431;DHT22;202;48.764;9.172;2023-05-07T22:12:03;17.50;91.70
431;DHT22;202;48.764;9.172;2023-05-07T22:14:30;17.40;91.60
431;DHT22;202;48.764;9.172;2023-05-07T22:16:56;17.60;92.10
431;DHT22;202;48.764;9.172;2023-05-07T22:19:25;17.60;92.20
431;DHT22;202;48.764;9.172;2023-05-07T22:21:52;17.60;92.60
431;DHT22;202;48.764;9.172;2023-05-07T22:24:18;17.60;91.70
431;DHT22;202;48.764;9.172;2023-05-07T22:26:45;17.70;91.00
431;DHT22;202;48.764;9.172;2023-05-07T22:29:13;17.70;91.00
431;DHT22;202;48.764;9.172;2023-05-07T22:31:40;17.70;90.00
431;DHT22;202;48.764;9.172;2023-05-07T22:34:06;17.70;90.80
431;DHT22;202;48.764;9.172;2023-05-07T22:36:35;17.70;90.60
431;DHT22;202;48.764;9.172;2023-05-07T22:39:02;17.70;91.10
431;DHT22;202;48.764;9.172;2023-05-07T22:41:31;17.70;90.50
431;DHT22;202;48.764;9.172;2023-05-07T22:43:58;17.70;91.20
431;DHT22;202;48.764;9.172;2023-05-07T22:46:25;17.70;91.10
431;DHT22;202;48.764;9.172;2023-05-07T22:48:52;17.80;90.40
431;DHT22;202;48.764;9.172;2023-05-07T22:51:18;17.80;90.00
431;DHT22;202;48.764;9.172;2023-05-07T22:53:47;17.80;90.50
431;DHT22;202;48.764;9.172;2023-05-07T22:56:14;17.70;91.00
431;DHT22;202;48.764;9.172;2023-05-07T22:58:41;17.70;91.70
431;DHT22;202;48.764;9.172;2023-05-07T23:01:12;17.60;92.70
431;DHT22;202;48.764;9.172;2023-05-07T23:03:39;17.70;92.20
431;DHT22;202;48.764;9.172;2023-05-07T23:06:06;17.60;92.40
431;DHT22;202;48.764;9.172;2023-05-07T23:08:33;17.70;92.40
431;DHT22;202;48.764;9.172;2023-05-07T23:11:01;17.70;92.00
431;DHT22;202;48.764;9.172;2023-05-07T23:13:28;17.70;92.30
431;DHT22;202;48.764;9.172;2023-05-07T23:15:54;17.70;91.70
431;DHT22;202;48.764;9.172;2023-05-07T23:18:23;17.60;91.60
431;DHT22;202;48.764;9.172;2023-05-07T23:20:52;17.50;91.60
431;DHT22;202;48.764;9.172;2023-05-07T23:23:19;17.50;92.20
431;DHT22;202;48.764;9.172;2023-05-07T23:25:45;17.40;92.00
431;DHT22;202;48.764;9.172;2023-05-07T23:28:14;17.40;93.10
431;DHT22;202;48.764;9.172;2023-05-07T23:30:40;17.40;93.60
431;DHT22;202;48.764;9.172;2023-05-07T23:33:07;17.40;92.70
431;DHT22;202;48.764;9.172;2023-05-07T23:35:34;17.40;93.20
431;DHT22;202;48.764;9.172;2023-05-07T23:38:01;17.40;92.20
431;DHT22;202;48.764;9.172;2023-05-07T23:40:28;17.40;92.70
431;DHT22;202;48.764;9.172;2023-05-07T23:42:55;17.40;93.30
431;DHT22;202;48.764;9.172;2023-05-07T23:45:23;17.40;93.10
431;DHT22;202;48.764;9.172;2023-05-07T23:47:50;17.30;92.70
431;DHT22;202;48.764;9.172;2023-05-07T23:50:17;17.20;92.60
431;DHT22;202;48.764;9.172;2023-05-07T23:52:43;17.10;92.70
431;DHT22;202;48.764;9.172;2023-05-07T23:55:10;17.10;92.90
431;DHT22;202;48.764;9.172;2023-05-07T23:57:38;17.10;93.20
